sensor_id;sensor_type;location;lat;lon;timestamp;temperature;humidity
17726;DHT22;8983;53.156;17.960;2023-06-01T00:02:26;16.20;74.30
17726;DHT22;8983;53.156;17.960;2023-06-01T00:04:54;16.10;74.40
17726;DHT22;8983;53.156;17.960;2023-06-01T00:07:22;16.10;74.60
17726;DHT22;8983;53.156;17.960;2023-06-01T00:09:51;16.00;74.60
17726;DHT22;8983;53.156;17.960;2023-06-01T00:12:19;16.00;74.80
17726;DHT22;8983;53.156;17.960;2023-06-01T00:14:48;16.00;74.80
17726;DHT22;8983;53.156;17.960;2023-06-01T00:17:18;16.00;74.80
17726;DHT22;8983;53.156;17.960;2023-06-01T00:19:47;15.90;74.80
17726;DHT22;8983;53.156;17.960;2023-06-01T00:22:15;15.90;75.00
17726;DHT22;8983;53.156;17.960;2023-06-01T00:24:43;15.90;75.00
17726;DHT22;8983;53.156;17.960;2023-06-01T00:27:11;15.90;75.20
17726;DHT22;8983;53.156;17.960;2023-06-01T00:29:39;15.80;75.40
17726;DHT22;8983;53.156;17.960;2023-06-01T00:32:09;15.80;75.60
17726;DHT22;8983;53.156;17.960;2023-06-01T00:34:37;15.80;75.80
17726;DHT22;8983;53.156;17.960;2023-06-01T00:37:05;15.60;75.80
17726;DHT22;8983;53.156;17.960;2023-06-01T00:39:33;15.60;76.20
17726;DHT22;8983;53.156;17.960;2023-06-01T00:42:01;15.60;76.40
17726;DHT22;8983;53.156;17.960;2023-06-01T00:44:29;15.50;76.40
17726;DHT22;8983;53.156;17.960;2023-06-01T00:46:57;15.50;76.60
17726;DHT22;8983;53.156;17.960;2023-06-01T00:49:28;15.50;76.70
17726;DHT22;8983;53.156;17.960;2023-06-01T00:51:56;15.50;76.60
17726;DHT22;8983;53.156;17.960;2023-06-01T00:54:24;15.50;76.70
17726;DHT22;8983;53.156;17.960;2023-06-01T00:56:53;15.40;76.80
17726;DHT22;8983;53.156;17.960;2023-06-01T00:59:21;15.40;77.00
17726;DHT22;8983;53.156;17.960;2023-06-01T01:01:49;15.30;77.10
17726;DHT22;8983;53.156;17.960;2023-06-01T01:04:19;15.30;77.40
17726;DHT22;8983;53.156;17.960;2023-06-01T01:07:02;15.30;76.90
17726;DHT22;8983;53.156;17.960;2023-06-01T01:09:38;15.20;76.60
17726;DHT22;8983;53.156;17.960;2023-06-01T01:12:12;15.20;76.70
17726;DHT22;8983;53.156;17.960;2023-06-01T01:14:46;15.20;76.80
17726;DHT22;8983;53.156;17.960;2023-06-01T01:17:24;15.10;76.90
17726;DHT22;8983;53.156;17.960;2023-06-01T01:20:02;15.20;77.00
17726;DHT22;8983;53.156;17.960;2023-06-01T01:23:06;15.00;77.00
17726;DHT22;8983;53.156;17.960;2023-06-01T01:26:04;15.00;77.20
17726;DHT22;8983;53.156;17.960;2023-06-01T01:28:41;14.90;77.60
17726;DHT22;8983;53.156;17.960;2023-06-01T01:31:12;14.80;77.70
17726;DHT22;8983;53.156;17.960;2023-06-01T01:33:41;14.80;77.70
17726;DHT22;8983;53.156;17.960;2023-06-01T01:36:10;14.80;77.70
17726;DHT22;8983;53.156;17.960;2023-06-01T01:38:39;14.80;77.80
17726;DHT22;8983;53.156;17.960;2023-06-01T01:41:07;14.80;78.00
17726;DHT22;8983;53.156;17.960;2023-06-01T01:43:37;14.60;77.90
17726;DHT22;8983;53.156;17.960;2023-06-01T01:46:14;14.70;78.20
17726;DHT22;8983;53.156;17.960;2023-06-01T01:48:50;14.70;78.60
17726;DHT22;8983;53.156;17.960;2023-06-01T01:51:22;14.70;78.80
17726;DHT22;8983;53.156;17.960;2023-06-01T01:53:52;14.60;78.70
17726;DHT22;8983;53.156;17.960;2023-06-01T01:56:22;14.60;78.80
17726;DHT22;8983;53.156;17.960;2023-06-01T01:58:54;14.60;78.90
17726;DHT22;8983;53.156;17.960;2023-06-01T02:01:23;14.70;79.10
17726;DHT22;8983;53.156;17.960;2023-06-01T02:03:59;14.50;79.00
17726;DHT22;8983;53.156;17.960;2023-06-01T02:06:27;14.50;79.20
17726;DHT22;8983;53.156;17.960;2023-06-01T02:08:56;14.30;79.20
17726;DHT22;8983;53.156;17.960;2023-06-01T02:11:24;14.40;79.30
17726;DHT22;8983;53.156;17.960;2023-06-01T02:13:54;14.30;79.30
17726;DHT22;8983;53.156;17.960;2023-06-01T02:16:22;14.30;79.30
17726;DHT22;8983;53.156;17.960;2023-06-01T02:18:50;14.40;79.60
17726;DHT22;8983;53.156;17.960;2023-06-01T02:21:18;14.20;79.80
17726;DHT22;8983;53.156;17.960;2023-06-01T02:23:46;14.20;80.00
17726;DHT22;8983;53.156;17.960;2023-06-01T02:26:14;14.20;80.10
17726;DHT22;8983;53.156;17.960;2023-06-01T02:28:42;14.10;80.20
17726;DHT22;8983;53.156;17.960;2023-06-01T02:31:12;14.10;80.50
17726;DHT22;8983;53.156;17.960;2023-06-01T02:33:41;14.10;80.60
17726;DHT22;8983;53.156;17.960;2023-06-01T02:36:09;14.10;80.50
17726;DHT22;8983;53.156;17.960;2023-06-01T02:38:37;14.10;80.60
17726;DHT22;8983;53.156;17.960;2023-06-01T02:41:05;14.10;80.70
17726;DHT22;8983;53.156;17.960;2023-06-01T02:43:34;14.00;80.60
17726;DHT22;8983;53.156;17.960;2023-06-01T02:46:02;14.00;80.70
17726;DHT22;8983;53.156;17.960;2023-06-01T02:48:33;14.00;80.90
17726;DHT22;8983;53.156;17.960;2023-06-01T02:51:01;14.00;80.90
17726;DHT22;8983;53.156;17.960;2023-06-01T02:53:29;13.90;80.70
17726;DHT22;8983;53.156;17.960;2023-06-01T02:55:58;13.90;80.70
17726;DHT22;8983;53.156;17.960;2023-06-01T02:58:26;13.90;80.80
17726;DHT22;8983;53.156;17.960;2023-06-01T03:00:56;13.90;80.80
17726;DHT22;8983;53.156;17.960;2023-06-01T03:03:25;13.90;80.90
17726;DHT22;8983;53.156;17.960;2023-06-01T03:05:55;13.90;81.10
17726;DHT22;8983;53.156;17.960;2023-06-01T03:08:23;13.90;81.30
17726;DHT22;8983;53.156;17.960;2023-06-01T03:10:52;13.80;81.30
17726;DHT22;8983;53.156;17.960;2023-06-01T03:13:20;13.80;81.40
17726;DHT22;8983;53.156;17.960;2023-06-01T03:15:48;13.80;81.60
17726;DHT22;8983;53.156;17.960;2023-06-01T03:18:17;13.80;81.70
17726;DHT22;8983;53.156;17.960;2023-06-01T03:20:45;13.90;81.90
17726;DHT22;8983;53.156;17.960;2023-06-01T03:23:15;13.70;82.10
17726;DHT22;8983;53.156;17.960;2023-06-01T03:25:44;13.80;83.20
17726;DHT22;8983;53.156;17.960;2023-06-01T03:28:12;13.80;82.60
17726;DHT22;8983;53.156;17.960;2023-06-01T03:30:40;13.80;82.70
17726;DHT22;8983;53.156;17.960;2023-06-01T03:33:09;13.80;82.90
17726;DHT22;8983;53.156;17.960;2023-06-01T03:35:37;13.80;83.20
17726;DHT22;8983;53.156;17.960;2023-06-01T03:38:05;13.80;83.20
17726;DHT22;8983;53.156;17.960;2023-06-01T03:40:35;13.80;83.20
17726;DHT22;8983;53.156;17.960;2023-06-01T03:43:03;13.90;83.40
17726;DHT22;8983;53.156;17.960;2023-06-01T03:45:31;13.80;83.50
17726;DHT22;8983;53.156;17.960;2023-06-01T03:48:00;13.90;83.80
17726;DHT22;8983;53.156;17.960;2023-06-01T03:50:28;13.90;84.10
17726;DHT22;8983;53.156;17.960;2023-06-01T03:52:57;13.90;84.40
17726;DHT22;8983;53.156;17.960;2023-06-01T03:55:25;14.00;85.70
17726;DHT22;8983;53.156;17.960;2023-06-01T03:57:54;14.00;85.40
17726;DHT22;8983;53.156;17.960;2023-06-01T04:00:22;14.00;85.70
17726;DHT22;8983;53.156;17.960;2023-06-01T04:02:54;14.00;86.00
17726;DHT22;8983;53.156;17.960;2023-06-01T04:05:25;14.00;86.10
17726;DHT22;8983;53.156;17.960;2023-06-01T04:07:54;14.10;86.30
17726;DHT22;8983;53.156;17.960;2023-06-01T04:10:22;14.10;86.50
17726;DHT22;8983;53.156;17.960;2023-06-01T04:12:51;14.10;86.60
17726;DHT22;8983;53.156;17.960;2023-06-01T04:15:21;14.20;86.80
17726;DHT22;8983;53.156;17.960;2023-06-01T04:17:49;14.20;86.80
17726;DHT22;8983;53.156;17.960;2023-06-01T04:20:17;14.30;86.60
17726;DHT22;8983;53.156;17.960;2023-06-01T04:22:46;14.30;86.60
17726;DHT22;8983;53.156;17.960;2023-06-01T04:25:15;14.40;86.60
17726;DHT22;8983;53.156;17.960;2023-06-01T04:27:47;14.50;86.40
17726;DHT22;8983;53.156;17.960;2023-06-01T04:30:20;14.50;85.90
17726;DHT22;8983;53.156;17.960;2023-06-01T04:32:49;14.50;85.60
17726;DHT22;8983;53.156;17.960;2023-06-01T04:35:17;14.60;85.40
17726;DHT22;8983;53.156;17.960;2023-06-01T04:37:45;14.60;85.20
17726;DHT22;8983;53.156;17.960;2023-06-01T04:40:16;14.70;85.00
17726;DHT22;8983;53.156;17.960;2023-06-01T04:42:44;14.60;85.60
17726;DHT22;8983;53.156;17.960;2023-06-01T04:45:24;14.80;84.90
17726;DHT22;8983;53.156;17.960;2023-06-01T04:47:53;14.80;85.00
17726;DHT22;8983;53.156;17.960;2023-06-01T04:50:24;14.80;85.10
17726;DHT22;8983;53.156;17.960;2023-06-01T04:52:55;14.90;85.30
17726;DHT22;8983;53.156;17.960;2023-06-01T04:55:23;15.00;85.50
17726;DHT22;8983;53.156;17.960;2023-06-01T04:57:52;15.00;85.70
17726;DHT22;8983;53.156;17.960;2023-06-01T05:00:20;15.10;86.00
17726;DHT22;8983;53.156;17.960;2023-06-01T05:02:51;15.10;86.30
17726;DHT22;8983;53.156;17.960;2023-06-01T05:05:19;15.20;86.60
17726;DHT22;8983;53.156;17.960;2023-06-01T05:07:47;15.20;86.90
17726;DHT22;8983;53.156;17.960;2023-06-01T05:10:16;15.30;87.20
17726;DHT22;8983;53.156;17.960;2023-06-01T05:12:44;15.30;87.40
17726;DHT22;8983;53.156;17.960;2023-06-01T05:15:12;15.40;87.70
17726;DHT22;8983;53.156;17.960;2023-06-01T05:17:40;15.40;88.00
17726;DHT22;8983;53.156;17.960;2023-06-01T05:20:11;15.40;88.30
17726;DHT22;8983;53.156;17.960;2023-06-01T05:22:39;15.50;88.70
17726;DHT22;8983;53.156;17.960;2023-06-01T05:25:08;15.50;89.00
17726;DHT22;8983;53.156;17.960;2023-06-01T05:27:38;15.60;89.40
17726;DHT22;8983;53.156;17.960;2023-06-01T05:30:07;15.60;89.70
17726;DHT22;8983;53.156;17.960;2023-06-01T05:32:35;15.70;90.00
17726;DHT22;8983;53.156;17.960;2023-06-01T05:35:04;15.70;90.20
17726;DHT22;8983;53.156;17.960;2023-06-01T05:37:36;15.70;90.30
17726;DHT22;8983;53.156;17.960;2023-06-01T05:40:06;15.80;90.50
17726;DHT22;8983;53.156;17.960;2023-06-01T05:42:35;15.80;90.70
17726;DHT22;8983;53.156;17.960;2023-06-01T05:45:05;15.90;90.90
17726;DHT22;8983;53.156;17.960;2023-06-01T05:47:33;15.90;91.00
17726;DHT22;8983;53.156;17.960;2023-06-01T05:50:01;16.00;91.20
17726;DHT22;8983;53.156;17.960;2023-06-01T05:52:29;16.00;91.40
17726;DHT22;8983;53.156;17.960;2023-06-01T05:54:59;16.00;91.60
17726;DHT22;8983;53.156;17.960;2023-06-01T05:57:27;16.10;91.80
17726;DHT22;8983;53.156;17.960;2023-06-01T05:59:55;16.10;91.90
17726;DHT22;8983;53.156;17.960;2023-06-01T06:02:23;16.20;92.10
17726;DHT22;8983;53.156;17.960;2023-06-01T06:04:51;16.20;92.20
17726;DHT22;8983;53.156;17.960;2023-06-01T06:07:19;16.20;92.40
17726;DHT22;8983;53.156;17.960;2023-06-01T06:09:47;16.30;92.60
17726;DHT22;8983;53.156;17.960;2023-06-01T06:12:17;16.30;92.90
17726;DHT22;8983;53.156;17.960;2023-06-01T06:14:45;16.30;93.10
17726;DHT22;8983;53.156;17.960;2023-06-01T06:17:13;16.30;93.20
17726;DHT22;8983;53.156;17.960;2023-06-01T06:19:41;16.50;93.50
17726;DHT22;8983;53.156;17.960;2023-06-01T06:22:11;16.50;93.60
17726;DHT22;8983;53.156;17.960;2023-06-01T06:24:39;16.50;93.70
17726;DHT22;8983;53.156;17.960;2023-06-01T06:27:08;16.60;93.90
17726;DHT22;8983;53.156;17.960;2023-06-01T06:29:41;16.70;94.20
17726;DHT22;8983;53.156;17.960;2023-06-01T06:32:09;16.70;94.30
17726;DHT22;8983;53.156;17.960;2023-06-01T06:34:37;16.80;94.50
17726;DHT22;8983;53.156;17.960;2023-06-01T06:37:05;16.90;94.70
17726;DHT22;8983;53.156;17.960;2023-06-01T06:39:34;16.90;94.90
17726;DHT22;8983;53.156;17.960;2023-06-01T06:42:05;17.00;95.00
17726;DHT22;8983;53.156;17.960;2023-06-01T06:44:33;17.00;95.10
17726;DHT22;8983;53.156;17.960;2023-06-01T06:47:03;17.10;95.20
17726;DHT22;8983;53.156;17.960;2023-06-01T06:49:31;17.10;95.40
17726;DHT22;8983;53.156;17.960;2023-06-01T06:51:59;17.10;95.40
17726;DHT22;8983;53.156;17.960;2023-06-01T06:54:27;17.00;95.50
17726;DHT22;8983;53.156;17.960;2023-06-01T06:56:55;17.20;95.70
17726;DHT22;8983;53.156;17.960;2023-06-01T06:59:23;17.20;95.90
17726;DHT22;8983;53.156;17.960;2023-06-01T07:01:52;17.20;96.00
17726;DHT22;8983;53.156;17.960;2023-06-01T07:04:21;17.30;96.10
17726;DHT22;8983;53.156;17.960;2023-06-01T07:06:49;17.30;96.40
17726;DHT22;8983;53.156;17.960;2023-06-01T07:09:18;17.30;96.50
17726;DHT22;8983;53.156;17.960;2023-06-01T07:11:47;17.30;96.60
17726;DHT22;8983;53.156;17.960;2023-06-01T07:14:15;17.40;96.70
17726;DHT22;8983;53.156;17.960;2023-06-01T07:16:43;17.50;96.80
17726;DHT22;8983;53.156;17.960;2023-06-01T07:19:12;17.50;96.80
17726;DHT22;8983;53.156;17.960;2023-06-01T07:21:41;17.60;97.00
17726;DHT22;8983;53.156;17.960;2023-06-01T07:24:10;17.60;97.10
17726;DHT22;8983;53.156;17.960;2023-06-01T07:26:38;17.70;97.30
17726;DHT22;8983;53.156;17.960;2023-06-01T07:29:06;17.70;97.50
17726;DHT22;8983;53.156;17.960;2023-06-01T07:31:35;17.80;97.60
17726;DHT22;8983;53.156;17.960;2023-06-01T07:34:03;17.80;97.80
17726;DHT22;8983;53.156;17.960;2023-06-01T07:36:31;17.90;97.90
17726;DHT22;8983;53.156;17.960;2023-06-01T07:39:06;18.00;97.90
17726;DHT22;8983;53.156;17.960;2023-06-01T07:41:35;18.00;98.00
17726;DHT22;8983;53.156;17.960;2023-06-01T07:44:04;18.00;98.00
17726;DHT22;8983;53.156;17.960;2023-06-01T07:46:32;18.10;98.10
17726;DHT22;8983;53.156;17.960;2023-06-01T07:49:00;18.20;98.20
17726;DHT22;8983;53.156;17.960;2023-06-01T07:51:28;18.20;98.20
17726;DHT22;8983;53.156;17.960;2023-06-01T07:53:58;18.30;98.20
17726;DHT22;8983;53.156;17.960;2023-06-01T07:56:29;18.30;98.10
17726;DHT22;8983;53.156;17.960;2023-06-01T07:58:58;18.40;97.90
17726;DHT22;8983;53.156;17.960;2023-06-01T08:01:26;18.50;97.90
17726;DHT22;8983;53.156;17.960;2023-06-01T08:03:54;18.60;98.10
17726;DHT22;8983;53.156;17.960;2023-06-01T08:06:23;18.40;97.70
17726;DHT22;8983;53.156;17.960;2023-06-01T08:08:55;18.70;97.70
17726;DHT22;8983;53.156;17.960;2023-06-01T08:11:23;18.80;97.40
17726;DHT22;8983;53.156;17.960;2023-06-01T08:13:54;18.90;97.20
17726;DHT22;8983;53.156;17.960;2023-06-01T08:16:23;18.90;97.00
17726;DHT22;8983;53.156;17.960;2023-06-01T08:18:53;18.90;96.80
17726;DHT22;8983;53.156;17.960;2023-06-01T08:21:23;19.00;96.80
17726;DHT22;8983;53.156;17.960;2023-06-01T08:23:53;19.00;96.70
17726;DHT22;8983;53.156;17.960;2023-06-01T08:26:23;19.10;96.70
17726;DHT22;8983;53.156;17.960;2023-06-01T08:28:53;19.20;96.40
17726;DHT22;8983;53.156;17.960;2023-06-01T08:31:23;19.10;96.30
17726;DHT22;8983;53.156;17.960;2023-06-01T08:33:52;19.20;96.20
17726;DHT22;8983;53.156;17.960;2023-06-01T08:36:21;19.20;96.00
17726;DHT22;8983;53.156;17.960;2023-06-01T08:38:50;19.30;95.90
17726;DHT22;8983;53.156;17.960;2023-06-01T08:41:24;19.30;95.60
17726;DHT22;8983;53.156;17.960;2023-06-01T08:43:58;19.30;95.40
17726;DHT22;8983;53.156;17.960;2023-06-01T08:46:26;19.40;95.30
17726;DHT22;8983;53.156;17.960;2023-06-01T08:48:58;19.40;95.10
17726;DHT22;8983;53.156;17.960;2023-06-01T08:51:27;19.40;95.00
17726;DHT22;8983;53.156;17.960;2023-06-01T08:53:57;19.50;94.70
17726;DHT22;8983;53.156;17.960;2023-06-01T08:56:30;19.50;94.50
17726;DHT22;8983;53.156;17.960;2023-06-01T08:58:59;19.60;94.30
17726;DHT22;8983;53.156;17.960;2023-06-01T09:01:28;19.50;94.20
17726;DHT22;8983;53.156;17.960;2023-06-01T09:03:56;19.70;94.00
17726;DHT22;8983;53.156;17.960;2023-06-01T09:06:24;19.70;93.80
17726;DHT22;8983;53.156;17.960;2023-06-01T09:08:53;19.90;93.80
17726;DHT22;8983;53.156;17.960;2023-06-01T09:11:22;19.90;93.70
17726;DHT22;8983;53.156;17.960;2023-06-01T09:13:50;20.00;93.60
17726;DHT22;8983;53.156;17.960;2023-06-01T09:16:19;20.10;93.60
17726;DHT22;8983;53.156;17.960;2023-06-01T09:18:52;20.20;93.60
17726;DHT22;8983;53.156;17.960;2023-06-01T09:21:20;20.20;93.50
17726;DHT22;8983;53.156;17.960;2023-06-01T09:23:49;20.30;93.30
17726;DHT22;8983;53.156;17.960;2023-06-01T09:26:17;20.30;93.00
17726;DHT22;8983;53.156;17.960;2023-06-01T09:28:55;20.20;92.80
17726;DHT22;8983;53.156;17.960;2023-06-01T09:31:39;20.20;92.40
17726;DHT22;8983;53.156;17.960;2023-06-01T09:34:09;20.10;92.20
17726;DHT22;8983;53.156;17.960;2023-06-01T09:36:38;20.10;92.30
17726;DHT22;8983;53.156;17.960;2023-06-01T09:39:08;20.30;92.40
17726;DHT22;8983;53.156;17.960;2023-06-01T09:41:50;20.30;92.20
17726;DHT22;8983;53.156;17.960;2023-06-01T09:44:26;20.30;92.00
17726;DHT22;8983;53.156;17.960;2023-06-01T09:46:57;20.30;91.90
17726;DHT22;8983;53.156;17.960;2023-06-01T09:49:27;20.30;91.80
17726;DHT22;8983;53.156;17.960;2023-06-01T09:52:09;20.40;91.60
17726;DHT22;8983;53.156;17.960;2023-06-01T09:54:41;20.40;91.30
17726;DHT22;8983;53.156;17.960;2023-06-01T09:57:10;20.50;91.30
17726;DHT22;8983;53.156;17.960;2023-06-01T09:59:40;20.50;91.10
17726;DHT22;8983;53.156;17.960;2023-06-01T10:02:14;20.50;91.10
17726;DHT22;8983;53.156;17.960;2023-06-01T10:04:46;20.50;91.10
17726;DHT22;8983;53.156;17.960;2023-06-01T10:07:16;20.50;90.90
17726;DHT22;8983;53.156;17.960;2023-06-01T10:09:46;20.50;90.80
17726;DHT22;8983;53.156;17.960;2023-06-01T10:12:16;20.60;90.60
17726;DHT22;8983;53.156;17.960;2023-06-01T10:14:44;20.60;90.50
17726;DHT22;8983;53.156;17.960;2023-06-01T10:17:14;20.70;90.50
17726;DHT22;8983;53.156;17.960;2023-06-01T10:19:43;20.80;90.30
17726;DHT22;8983;53.156;17.960;2023-06-01T10:22:13;20.90;90.20
17726;DHT22;8983;53.156;17.960;2023-06-01T10:24:42;20.90;90.00
17726;DHT22;8983;53.156;17.960;2023-06-01T10:27:18;21.00;89.60
17726;DHT22;8983;53.156;17.960;2023-06-01T10:29:48;21.00;89.20
17726;DHT22;8983;53.156;17.960;2023-06-01T10:32:46;20.90;89.00
17726;DHT22;8983;53.156;17.960;2023-06-01T10:38:30;21.10;88.40
17726;DHT22;8983;53.156;17.960;2023-06-01T10:41:27;21.10;87.90
17726;DHT22;8983;53.156;17.960;2023-06-01T10:43:58;21.10;86.90
17726;DHT22;8983;53.156;17.960;2023-06-01T10:46:40;21.10;86.50
17726;DHT22;8983;53.156;17.960;2023-06-01T10:49:13;21.10;86.50
17726;DHT22;8983;53.156;17.960;2023-06-01T10:51:41;21.20;86.90
17726;DHT22;8983;53.156;17.960;2023-06-01T10:54:29;21.10;87.00
17726;DHT22;8983;53.156;17.960;2023-06-01T10:57:21;21.20;86.90
17726;DHT22;8983;53.156;17.960;2023-06-01T11:00:12;21.40;86.60
17726;DHT22;8983;53.156;17.960;2023-06-01T11:02:46;21.50;86.20
17726;DHT22;8983;53.156;17.960;2023-06-01T11:05:37;21.80;85.70
17726;DHT22;8983;53.156;17.960;2023-06-01T11:08:06;22.40;84.30
17726;DHT22;8983;53.156;17.960;2023-06-01T11:10:56;22.90;83.30
17726;DHT22;8983;53.156;17.960;2023-06-01T11:16:28;23.80;79.60
17726;DHT22;8983;53.156;17.960;2023-06-01T11:18:58;24.20;79.30
17726;DHT22;8983;53.156;17.960;2023-06-01T11:21:33;24.40;77.40
17726;DHT22;8983;53.156;17.960;2023-06-01T11:24:08;24.60;76.20
17726;DHT22;8983;53.156;17.960;2023-06-01T11:26:39;24.80;75.30
17726;DHT22;8983;53.156;17.960;2023-06-01T11:29:12;24.90;74.90
17726;DHT22;8983;53.156;17.960;2023-06-01T11:31:43;25.10;73.40
17726;DHT22;8983;53.156;17.960;2023-06-01T11:34:13;25.30;72.30
17726;DHT22;8983;53.156;17.960;2023-06-01T11:36:45;25.40;71.80
17726;DHT22;8983;53.156;17.960;2023-06-01T11:39:20;25.40;70.00
17726;DHT22;8983;53.156;17.960;2023-06-01T11:41:50;25.50;69.10
17726;DHT22;8983;53.156;17.960;2023-06-01T11:44:19;25.50;67.70
17726;DHT22;8983;53.156;17.960;2023-06-01T11:46:54;25.50;67.40
17726;DHT22;8983;53.156;17.960;2023-06-01T11:49:23;25.60;66.90
17726;DHT22;8983;53.156;17.960;2023-06-01T11:51:53;25.60;66.50
17726;DHT22;8983;53.156;17.960;2023-06-01T11:54:24;25.70;66.30
17726;DHT22;8983;53.156;17.960;2023-06-01T11:56:53;25.90;66.10
17726;DHT22;8983;53.156;17.960;2023-06-01T11:59:24;26.00;65.50
17726;DHT22;8983;53.156;17.960;2023-06-01T12:01:54;26.20;64.90
17726;DHT22;8983;53.156;17.960;2023-06-01T12:04:23;26.40;64.50
17726;DHT22;8983;53.156;17.960;2023-06-01T12:07:04;26.60;64.40
17726;DHT22;8983;53.156;17.960;2023-06-01T12:09:34;26.90;63.40
17726;DHT22;8983;53.156;17.960;2023-06-01T12:12:04;27.00;62.40
17726;DHT22;8983;53.156;17.960;2023-06-01T12:14:34;27.20;61.80
17726;DHT22;8983;53.156;17.960;2023-06-01T12:17:03;27.60;60.80
17726;DHT22;8983;53.156;17.960;2023-06-01T12:19:32;27.90;59.60
17726;DHT22;8983;53.156;17.960;2023-06-01T12:22:04;28.10;59.00
17726;DHT22;8983;53.156;17.960;2023-06-01T12:24:33;28.30;58.20
17726;DHT22;8983;53.156;17.960;2023-06-01T12:27:03;28.50;57.90
17726;DHT22;8983;53.156;17.960;2023-06-01T12:29:41;28.70;57.40
17726;DHT22;8983;53.156;17.960;2023-06-01T12:32:10;29.00;56.60
17726;DHT22;8983;53.156;17.960;2023-06-01T12:34:39;29.10;56.10
17726;DHT22;8983;53.156;17.960;2023-06-01T12:37:16;29.40;55.90
17726;DHT22;8983;53.156;17.960;2023-06-01T12:39:51;29.70;55.40
17726;DHT22;8983;53.156;17.960;2023-06-01T12:42:33;29.90;54.90
17726;DHT22;8983;53.156;17.960;2023-06-01T12:45:04;30.10;54.50
17726;DHT22;8983;53.156;17.960;2023-06-01T12:47:36;30.30;54.20
17726;DHT22;8983;53.156;17.960;2023-06-01T12:50:06;30.40;53.70
17726;DHT22;8983;53.156;17.960;2023-06-01T12:52:37;30.60;53.40
17726;DHT22;8983;53.156;17.960;2023-06-01T12:55:06;30.70;52.80
17726;DHT22;8983;53.156;17.960;2023-06-01T12:57:36;30.80;52.50
17726;DHT22;8983;53.156;17.960;2023-06-01T13:00:06;31.10;52.10
17726;DHT22;8983;53.156;17.960;2023-06-01T13:02:34;31.20;51.30
17726;DHT22;8983;53.156;17.960;2023-06-01T13:05:03;31.30;51.10
17726;DHT22;8983;53.156;17.960;2023-06-01T13:07:33;31.50;50.90
17726;DHT22;8983;53.156;17.960;2023-06-01T13:10:03;31.60;50.70
17726;DHT22;8983;53.156;17.960;2023-06-01T13:12:31;31.90;50.30
17726;DHT22;8983;53.156;17.960;2023-06-01T13:14:59;32.00;49.70
17726;DHT22;8983;53.156;17.960;2023-06-01T13:17:27;32.10;49.40
17726;DHT22;8983;53.156;17.960;2023-06-01T13:19:55;32.10;49.10
17726;DHT22;8983;53.156;17.960;2023-06-01T13:22:23;32.00;48.90
17726;DHT22;8983;53.156;17.960;2023-06-01T13:24:51;31.90;48.90
17726;DHT22;8983;53.156;17.960;2023-06-01T13:27:32;32.00;48.90
17726;DHT22;8983;53.156;17.960;2023-06-01T13:30:01;32.10;48.60
17726;DHT22;8983;53.156;17.960;2023-06-01T13:32:30;32.30;48.40
17726;DHT22;8983;53.156;17.960;2023-06-01T13:34:59;32.30;48.00
17726;DHT22;8983;53.156;17.960;2023-06-01T13:37:27;31.90;47.90
17726;DHT22;8983;53.156;17.960;2023-06-01T13:39:55;31.40;48.40
17726;DHT22;8983;53.156;17.960;2023-06-01T13:42:23;31.20;48.80
17726;DHT22;8983;53.156;17.960;2023-06-01T13:44:53;31.50;49.00
17726;DHT22;8983;53.156;17.960;2023-06-01T13:47:21;32.00;48.40
17726;DHT22;8983;53.156;17.960;2023-06-01T13:49:49;32.50;48.00
17726;DHT22;8983;53.156;17.960;2023-06-01T13:52:18;32.90;47.30
17726;DHT22;8983;53.156;17.960;2023-06-01T13:54:46;32.90;46.60
17726;DHT22;8983;53.156;17.960;2023-06-01T13:57:14;32.50;46.30
17726;DHT22;8983;53.156;17.960;2023-06-01T13:59:42;31.80;46.40
17726;DHT22;8983;53.156;17.960;2023-06-01T14:02:12;31.50;46.80
17726;DHT22;8983;53.156;17.960;2023-06-01T14:04:40;31.60;47.00
17726;DHT22;8983;53.156;17.960;2023-06-01T14:07:08;31.90;46.90
17726;DHT22;8983;53.156;17.960;2023-06-01T14:09:37;32.20;46.80
17726;DHT22;8983;53.156;17.960;2023-06-01T14:12:05;32.00;46.60
17726;DHT22;8983;53.156;17.960;2023-06-01T14:14:33;32.00;46.70
17726;DHT22;8983;53.156;17.960;2023-06-01T14:17:02;32.00;46.70
17726;DHT22;8983;53.156;17.960;2023-06-01T14:19:31;32.00;46.30
17726;DHT22;8983;53.156;17.960;2023-06-01T14:21:59;32.20;46.20
17726;DHT22;8983;53.156;17.960;2023-06-01T14:24:27;32.40;45.80
17726;DHT22;8983;53.156;17.960;2023-06-01T14:26:56;32.50;45.60
17726;DHT22;8983;53.156;17.960;2023-06-01T14:29:24;32.50;45.40
17726;DHT22;8983;53.156;17.960;2023-06-01T14:31:52;32.40;45.30
17726;DHT22;8983;53.156;17.960;2023-06-01T14:34:20;32.50;45.00
17726;DHT22;8983;53.156;17.960;2023-06-01T14:36:50;32.50;44.80
17726;DHT22;8983;53.156;17.960;2023-06-01T14:39:18;32.60;44.80
17726;DHT22;8983;53.156;17.960;2023-06-01T14:41:46;32.80;44.80
17726;DHT22;8983;53.156;17.960;2023-06-01T14:44:14;33.10;44.60
17726;DHT22;8983;53.156;17.960;2023-06-01T14:46:42;33.40;44.50
17726;DHT22;8983;53.156;17.960;2023-06-01T14:49:10;33.60;44.60
17726;DHT22;8983;53.156;17.960;2023-06-01T14:51:38;33.60;44.40
17726;DHT22;8983;53.156;17.960;2023-06-01T14:54:08;33.50;44.50
17726;DHT22;8983;53.156;17.960;2023-06-01T14:56:36;33.30;44.90
17726;DHT22;8983;53.156;17.960;2023-06-01T14:59:04;33.00;45.20
17726;DHT22;8983;53.156;17.960;2023-06-01T15:01:32;32.60;45.40
17726;DHT22;8983;53.156;17.960;2023-06-01T15:04:00;32.30;46.10
17726;DHT22;8983;53.156;17.960;2023-06-01T15:06:28;32.00;46.30
17726;DHT22;8983;53.156;17.960;2023-06-01T15:08:56;31.50;46.40
17726;DHT22;8983;53.156;17.960;2023-06-01T15:11:26;31.30;46.80
17726;DHT22;8983;53.156;17.960;2023-06-01T15:13:54;31.60;47.30
17726;DHT22;8983;53.156;17.960;2023-06-01T15:16:22;31.90;46.40
17726;DHT22;8983;53.156;17.960;2023-06-01T15:18:53;31.90;46.20
17726;DHT22;8983;53.156;17.960;2023-06-01T15:21:21;31.90;46.00
17726;DHT22;8983;53.156;17.960;2023-06-01T15:23:49;31.80;46.00
17726;DHT22;8983;53.156;17.960;2023-06-01T15:26:18;31.60;46.30
17726;DHT22;8983;53.156;17.960;2023-06-01T15:28:47;31.70;46.60
17726;DHT22;8983;53.156;17.960;2023-06-01T15:31:15;31.70;46.40
17726;DHT22;8983;53.156;17.960;2023-06-01T15:33:43;31.70;46.50
17726;DHT22;8983;53.156;17.960;2023-06-01T15:36:12;31.60;46.40
17726;DHT22;8983;53.156;17.960;2023-06-01T15:38:40;31.60;46.60
17726;DHT22;8983;53.156;17.960;2023-06-01T15:41:08;31.60;46.60
17726;DHT22;8983;53.156;17.960;2023-06-01T15:43:40;31.50;46.50
17726;DHT22;8983;53.156;17.960;2023-06-01T15:46:09;31.40;46.40
17726;DHT22;8983;53.156;17.960;2023-06-01T15:48:38;31.50;46.40
17726;DHT22;8983;53.156;17.960;2023-06-01T15:51:06;31.40;46.20
17726;DHT22;8983;53.156;17.960;2023-06-01T15:53:34;31.30;46.20
17726;DHT22;8983;53.156;17.960;2023-06-01T15:56:03;31.20;46.20